createdAt,value
2023-05-02T00:00:58.815Z,57.3
2023-05-02T00:02:04.591Z,57.31
2023-05-02T00:03:10.703Z,57.3
2023-05-02T00:04:16.513Z,57.32
2023-05-02T00:05:22.060Z,57.45
2023-05-02T00:06:27.529Z,57.52
2023-05-02T00:07:32.966Z,57.67
2023-05-02T00:08:38.338Z,57.54
2023-05-02T00:09:43.705Z,57.72
2023-05-02T00:10:49.107Z,57.57
2023-05-02T00:11:54.494Z,57.64
2023-05-02T00:12:59.893Z,57.96
2023-05-02T00:14:05.311Z,57.65
2023-05-02T00:15:10.695Z,57.7
2023-05-02T00:16:16.128Z,57.83
2023-05-02T00:17:22.030Z,57.86
2023-05-02T00:18:27.502Z,57.91
2023-05-02T00:19:32.865Z,57.67
2023-05-02T00:20:38.342Z,57.85
2023-05-02T00:21:43.731Z,58.06
2023-05-02T00:22:49.129Z,58.07
2023-05-02T00:23:54.520Z,57.85
2023-05-02T00:25:00.029Z,57.86
2023-05-02T00:26:05.391Z,58.16
2023-05-02T00:27:10.771Z,57.9
2023-05-02T00:28:16.206Z,57.88
2023-05-02T00:29:21.561Z,57.85
2023-05-02T00:30:26.943Z,57.98
2023-05-02T00:31:32.499Z,58.1
2023-05-02T00:32:38.048Z,58.21
2023-05-02T00:33:43.495Z,58.27
2023-05-02T00:34:48.993Z,58.21
2023-05-02T00:35:54.567Z,58.38
2023-05-02T00:36:59.967Z,58.45
2023-05-02T00:38:05.362Z,58.63
2023-05-02T00:39:10.753Z,58.57
2023-05-02T00:40:16.165Z,58.62
2023-05-02T00:41:21.600Z,58.58
2023-05-02T00:42:27.027Z,58.64
2023-05-02T00:43:32.436Z,58.7
2023-05-02T00:44:37.825Z,58.93
2023-05-02T00:45:43.235Z,58.59
2023-05-02T00:46:48.953Z,58.62
2023-05-02T00:47:54.601Z,58.68
2023-05-02T00:49:00.119Z,59
2023-05-02T00:50:05.763Z,59.12
2023-05-02T00:51:11.127Z,58.81
2023-05-02T00:52:16.537Z,59.14
2023-05-02T00:53:21.929Z,59.18
2023-05-02T00:54:27.387Z,59.24
2023-05-02T00:55:32.751Z,59.08
2023-05-02T00:56:38.121Z,59.44
2023-05-02T00:57:43.468Z,59.24
2023-05-02T00:58:48.891Z,59.48
2023-05-02T00:59:54.239Z,59.27
2023-05-02T01:00:59.685Z,59.29
2023-05-02T01:02:05.418Z,59.34
2023-05-02T01:03:11.282Z,59.72
2023-05-02T01:04:16.977Z,59.21
2023-05-02T01:05:22.410Z,59.41
2023-05-02T01:06:27.964Z,59.25
2023-05-02T01:07:33.380Z,59.37
2023-05-02T01:08:38.761Z,59.61
2023-05-02T01:09:44.236Z,59.3
2023-05-02T01:10:49.602Z,59.62
2023-05-02T01:11:54.992Z,59.77
2023-05-02T01:13:00.421Z,59.34
2023-05-02T01:14:05.870Z,59.3
2023-05-02T01:15:11.255Z,59.4
2023-05-02T01:16:16.816Z,59.36
2023-05-02T01:17:22.242Z,59.49
2023-05-02T01:18:27.688Z,59.56
2023-05-02T01:19:33.078Z,59.66
2023-05-02T01:20:38.504Z,59.42
2023-05-02T01:21:43.893Z,59.62
2023-05-02T01:22:49.301Z,59.63
2023-05-02T01:23:54.705Z,59.75
2023-05-02T01:25:00.126Z,59.49
2023-05-02T01:26:05.609Z,59.91
2023-05-02T01:27:11.021Z,59.82
2023-05-02T01:28:16.430Z,60.24
2023-05-02T01:29:21.832Z,60.08
2023-05-02T01:30:27.213Z,60.17
2023-05-02T01:31:32.721Z,59.93
2023-05-02T01:32:38.274Z,60.21
2023-05-02T01:33:43.677Z,59.89
2023-05-02T01:34:49.075Z,59.95
2023-05-02T01:35:54.520Z,59.83
2023-05-02T01:36:59.992Z,59.95
2023-05-02T01:38:05.427Z,59.87
2023-05-02T01:39:10.786Z,59.91
2023-05-02T01:40:16.234Z,59.68
2023-05-02T01:41:21.631Z,60
2023-05-02T01:42:27.285Z,59.93
2023-05-02T01:43:32.670Z,59.96
2023-05-02T01:44:38.080Z,60.16
2023-05-02T01:45:43.461Z,60.1
2023-05-02T01:46:49.047Z,60.29
2023-05-02T01:47:54.626Z,60.11
2023-05-02T01:49:00.166Z,60.01
2023-05-02T01:50:05.566Z,59.94
2023-05-02T01:51:10.960Z,59.92
2023-05-02T01:52:16.324Z,60.06
2023-05-02T01:53:21.722Z,60.21
2023-05-02T01:54:27.149Z,60.37
2023-05-02T01:55:32.533Z,60.41
2023-05-02T01:56:37.940Z,60.26
2023-05-02T01:57:43.352Z,60.25
2023-05-02T01:58:48.735Z,60.35
2023-05-02T01:59:54.150Z,60.14
2023-05-02T02:00:59.785Z,60.83
2023-05-02T02:02:05.252Z,60.71
2023-05-02T02:03:10.768Z,60.36
2023-05-02T02:04:16.422Z,60.29
2023-05-02T02:05:21.863Z,60.26
2023-05-02T02:06:27.339Z,60.29
2023-05-02T02:07:32.798Z,60.44
2023-05-02T02:08:38.158Z,60.71
2023-05-02T02:09:43.560Z,60.23
2023-05-02T02:10:49.022Z,60.13
2023-05-02T02:11:54.404Z,60.35
2023-05-02T02:12:59.800Z,60.51
2023-05-02T02:14:05.197Z,60.42
2023-05-02T02:15:10.574Z,60.43
2023-05-02T02:16:16.064Z,60.42
2023-05-02T02:17:21.650Z,60.55
2023-05-02T02:18:27.046Z,60.74
2023-05-02T02:19:32.432Z,60.85
2023-05-02T02:20:37.998Z,60.86
2023-05-02T02:21:43.389Z,60.5
2023-05-02T02:22:48.806Z,60.59
2023-05-02T02:23:54.212Z,60.35
2023-05-02T02:24:59.608Z,60.63
2023-05-02T02:26:05.044Z,60.66
2023-05-02T02:27:10.477Z,60.64
2023-05-02T02:28:15.865Z,60.51
2023-05-02T02:29:21.242Z,60.7
2023-05-02T02:30:26.654Z,60.62
2023-05-02T02:31:32.433Z,60.58
2023-05-02T02:32:38.005Z,60.79
2023-05-02T02:33:43.445Z,60.8
2023-05-02T02:34:48.842Z,61.16
2023-05-02T02:35:54.308Z,60.81
2023-05-02T02:36:59.679Z,61.09
2023-05-02T02:38:05.082Z,61.22
2023-05-02T02:39:10.504Z,61.58
2023-05-02T02:40:15.972Z,60.91
2023-05-02T02:41:21.395Z,61.37
2023-05-02T02:42:26.794Z,60.68
2023-05-02T02:43:32.158Z,60.73
2023-05-02T02:44:37.588Z,60.63
2023-05-02T02:45:43.000Z,60.7
2023-05-02T02:46:48.616Z,60.58
2023-05-02T02:47:54.258Z,60.93
2023-05-02T02:48:59.709Z,60.98
2023-05-02T02:50:05.352Z,61.11
2023-05-02T02:51:10.776Z,60.72
2023-05-02T02:52:16.219Z,60.84
2023-05-02T02:53:21.597Z,60.77
2023-05-02T02:54:30.224Z,60.88
2023-05-02T02:55:35.612Z,60.57
2023-05-02T02:56:40.998Z,60.69
2023-05-02T02:57:46.411Z,60.97
2023-05-02T02:58:51.803Z,60.85
2023-05-02T02:59:57.295Z,61.06
2023-05-02T03:01:02.816Z,61.41
2023-05-02T03:02:08.534Z,60.95
2023-05-02T03:03:14.320Z,61.2
2023-05-02T03:04:20.125Z,60.95
2023-05-02T03:05:25.605Z,61.02
2023-05-02T03:06:31.264Z,60.88
2023-05-02T03:07:36.783Z,61.18
2023-05-02T03:08:42.183Z,60.85
2023-05-02T03:09:47.758Z,61.1
2023-05-02T03:10:53.130Z,60.99
2023-05-02T03:11:58.627Z,60.97
2023-05-02T03:13:04.072Z,61.44
2023-05-02T03:14:09.436Z,61.13
2023-05-02T03:15:14.832Z,61.09
2023-05-02T03:16:20.400Z,61.08
2023-05-02T03:17:28.933Z,61.24
2023-05-02T03:18:34.304Z,61.54
2023-05-02T03:19:39.687Z,61.22
2023-05-02T03:20:45.200Z,61.33
2023-05-02T03:21:50.632Z,61.59
2023-05-02T03:22:56.036Z,61.35
2023-05-02T03:24:01.468Z,61.39
2023-05-02T03:25:06.872Z,60.88
2023-05-02T03:26:12.304Z,61.2
2023-05-02T03:27:17.691Z,61.6
2023-05-02T03:28:23.090Z,61.28
2023-05-02T03:29:28.495Z,61.3
2023-05-02T03:30:34.053Z,61.26
2023-05-02T03:31:39.652Z,61.06
2023-05-02T03:32:45.255Z,61.55
2023-05-02T03:33:50.689Z,61.39
2023-05-02T03:34:56.068Z,61.63
2023-05-02T03:36:01.514Z,61.39
2023-05-02T03:37:06.946Z,61.2
2023-05-02T03:38:12.339Z,61.31
2023-05-02T03:39:17.741Z,61.32
2023-05-02T03:40:23.524Z,61.28
2023-05-02T03:41:28.899Z,61.08
2023-05-02T03:42:34.302Z,61.55
2023-05-02T03:43:39.697Z,61.33
2023-05-02T03:44:45.067Z,61.77
2023-05-02T03:45:51.545Z,61.69
2023-05-02T03:46:57.731Z,61.71
2023-05-02T03:48:03.325Z,61.69
2023-05-02T03:49:08.749Z,61.86
2023-05-02T03:50:14.238Z,61.84
2023-05-02T03:51:19.649Z,62.01
2023-05-02T03:52:25.120Z,61.59
2023-05-02T03:53:30.503Z,61.96
2023-05-02T03:54:35.884Z,61.81
2023-05-02T03:55:41.327Z,62.09
2023-05-02T03:56:46.759Z,61.81
2023-05-02T03:57:52.133Z,61.84
2023-05-02T03:58:57.521Z,62.1
2023-05-02T04:00:03.473Z,62.13
2023-05-02T04:01:08.870Z,61.56
2023-05-02T04:02:14.439Z,61.96
2023-05-02T04:03:20.505Z,61.94
2023-05-02T04:04:26.038Z,62.13
2023-05-02T04:05:31.534Z,61.85
2023-05-02T04:06:37.187Z,61.98
2023-05-02T04:07:42.705Z,62.07
2023-05-02T04:08:48.165Z,62.14
2023-05-02T04:09:53.551Z,62.2
2023-05-02T04:10:58.976Z,61.75
2023-05-02T04:12:04.429Z,62.04
2023-05-02T04:13:09.863Z,62.1
2023-05-02T04:14:15.448Z,61.85
2023-05-02T04:15:20.962Z,62.13
2023-05-02T04:16:26.476Z,62.09
2023-05-02T04:17:32.036Z,62.19
2023-05-02T04:18:37.459Z,62.16
2023-05-02T04:19:42.888Z,61.95
2023-05-02T04:20:48.365Z,61.71
2023-05-02T04:21:53.764Z,61.97
2023-05-02T04:22:59.162Z,61.93
2023-05-02T04:24:04.553Z,62.16
2023-05-02T04:25:09.934Z,61.95
2023-05-02T04:26:15.376Z,61.78
2023-05-02T04:27:20.793Z,61.99
2023-05-02T04:28:26.186Z,62.06
2023-05-02T04:29:31.593Z,62.18
2023-05-02T04:30:37.159Z,62.15
2023-05-02T04:31:42.567Z,61.99
2023-05-02T04:32:48.045Z,61.76
2023-05-02T04:33:53.455Z,62.08
2023-05-02T04:34:58.843Z,62.15
2023-05-02T04:36:04.248Z,61.95
2023-05-02T04:37:09.692Z,62.2
2023-05-02T04:38:15.062Z,61.87
2023-05-02T04:39:20.441Z,61.9
2023-05-02T04:40:25.822Z,62.04
2023-05-02T04:41:31.187Z,61.98
2023-05-02T04:42:36.554Z,62.2
2023-05-02T04:43:41.970Z,61.88
2023-05-02T04:44:47.360Z,61.82
2023-05-02T04:45:53.091Z,61.84
2023-05-02T04:46:58.548Z,61.44
2023-05-02T04:48:04.120Z,61.86
2023-05-02T04:49:09.541Z,61.71
2023-05-02T04:50:14.965Z,61.26
2023-05-02T04:51:20.345Z,60.99
2023-05-02T04:52:25.748Z,60.73
2023-05-02T04:53:31.118Z,61.03
2023-05-02T04:54:36.509Z,60.79
2023-05-02T04:55:41.948Z,61.11
2023-05-02T04:56:47.354Z,60.9
2023-05-02T04:57:52.734Z,61.1
2023-05-02T04:58:58.111Z,60.99
2023-05-02T05:00:04.243Z,60.75
2023-05-02T05:01:09.758Z,60.74
2023-05-02T05:02:15.839Z,60.82
2023-05-02T05:03:21.624Z,61.24
2023-05-02T05:04:27.116Z,60.92
2023-05-02T05:05:32.994Z,61.01
2023-05-02T05:06:38.554Z,60.86
2023-05-02T05:07:44.041Z,60.6
2023-05-02T05:08:49.433Z,61.06
2023-05-02T05:09:59.931Z,60.97
2023-05-02T05:11:05.697Z,60.88
2023-05-02T05:12:11.106Z,60.77
2023-05-02T05:13:16.535Z,60.73
2023-05-02T05:14:22.196Z,60.67
2023-05-02T05:15:27.619Z,61.06
2023-05-02T05:16:33.135Z,61.02
2023-05-02T05:17:38.717Z,61.02
2023-05-02T05:18:44.170Z,61.17
2023-05-02T05:19:49.577Z,61.03
2023-05-02T05:20:54.962Z,61.01
2023-05-02T05:22:00.409Z,61.02
2023-05-02T05:23:05.787Z,61.01
2023-05-02T05:24:11.202Z,61.17
2023-05-02T05:25:16.578Z,61.16
2023-05-02T05:26:21.947Z,61.11
2023-05-02T05:27:27.326Z,61.01
2023-05-02T05:28:32.696Z,61.04
2023-05-02T05:29:38.080Z,61.13
2023-05-02T05:30:43.590Z,61.1
2023-05-02T05:31:49.153Z,61.28
2023-05-02T05:32:54.747Z,61.34
2023-05-02T05:34:00.354Z,61.25
2023-05-02T05:35:05.746Z,61.08
2023-05-02T05:36:11.188Z,61.19
2023-05-02T05:37:16.597Z,61.43
2023-05-02T05:38:21.979Z,61.33
2023-05-02T05:39:27.461Z,61.38
2023-05-02T05:40:32.851Z,61.2
2023-05-02T05:41:38.357Z,61.32
2023-05-02T05:42:43.818Z,61.15
2023-05-02T05:43:49.186Z,60.91
2023-05-02T05:44:54.579Z,61.23
2023-05-02T05:45:59.988Z,61.34
2023-05-02T05:47:05.625Z,61.17
2023-05-02T05:48:11.226Z,61.1
2023-05-02T05:49:16.653Z,61.34
2023-05-02T05:50:22.037Z,61.31
2023-05-02T05:51:27.463Z,61
2023-05-02T05:52:32.877Z,61.15
2023-05-02T05:53:38.358Z,61.18
2023-05-02T05:54:43.751Z,61.15
2023-05-02T05:55:49.108Z,61.3
2023-05-02T05:56:54.507Z,61.09
2023-05-02T05:57:59.988Z,61.19
2023-05-02T05:59:05.417Z,61.07
2023-05-02T06:00:10.807Z,61.22
2023-05-02T06:01:16.181Z,61.27
2023-05-02T06:02:21.784Z,61.13
2023-05-02T06:03:27.700Z,61.09
2023-05-02T06:04:33.424Z,61.09
2023-05-02T06:05:38.865Z,61.21
2023-05-02T06:06:44.436Z,61.18
2023-05-02T06:07:49.911Z,61
2023-05-02T06:08:55.314Z,61.18
2023-05-02T06:10:01.678Z,61.15
2023-05-02T06:11:07.352Z,60.99
2023-05-02T06:12:12.738Z,60.97
2023-05-02T06:13:18.212Z,61.13
2023-05-02T06:14:23.674Z,61.18
2023-05-02T06:15:30.800Z,61.15
2023-05-02T06:16:36.573Z,61.25
2023-05-02T06:17:42.090Z,61.01
2023-05-02T06:18:47.538Z,61.06
2023-05-02T06:19:52.921Z,61.23
2023-05-02T06:20:58.303Z,61.24
2023-05-02T06:22:03.721Z,61.12
2023-05-02T06:23:09.120Z,61.22
2023-05-02T06:24:14.526Z,61.16
2023-05-02T06:25:19.941Z,61.18
2023-05-02T06:26:25.449Z,61.03
2023-05-02T06:27:33.734Z,61.02
2023-05-02T06:28:39.367Z,60.89
2023-05-02T06:29:44.725Z,60.97
2023-05-02T06:30:50.104Z,61.12
2023-05-02T06:31:55.750Z,61.02
2023-05-02T06:33:01.751Z,61.07
2023-05-02T06:34:07.162Z,61
2023-05-02T06:35:12.592Z,60.9
2023-05-02T06:36:18.062Z,60.98
2023-05-02T06:37:23.487Z,60.85
2023-05-02T06:38:28.897Z,61.15
2023-05-02T06:39:34.294Z,61.04
2023-05-02T06:40:39.652Z,61.07
2023-05-02T06:41:45.053Z,61.03
2023-05-02T06:42:50.421Z,61.18
2023-05-02T06:43:55.877Z,61.13
2023-05-02T06:45:01.241Z,61.08
2023-05-02T06:46:06.659Z,61.14
2023-05-02T06:47:12.335Z,61.16
2023-05-02T06:48:17.876Z,61.23
2023-05-02T06:49:23.280Z,61.18
2023-05-02T06:50:28.703Z,61.17
2023-05-02T06:51:34.121Z,61.05
2023-05-02T06:52:39.542Z,60.89
2023-05-02T06:53:45.038Z,60.94
2023-05-02T06:54:50.443Z,60.94
2023-05-02T06:55:55.821Z,60.34
2023-05-02T06:57:01.273Z,60.38
2023-05-02T06:58:06.647Z,60.32
2023-05-02T06:59:11.999Z,60.22
2023-05-02T07:00:17.515Z,60.32
2023-05-02T07:01:23.053Z,60.25
2023-05-02T07:02:28.538Z,60.26
2023-05-02T07:03:33.982Z,60.34
2023-05-02T07:04:39.736Z,60.43
2023-05-02T07:05:45.177Z,60.41
2023-05-02T07:06:50.868Z,60.07
2023-05-02T07:07:56.615Z,60.19
2023-05-02T07:09:02.102Z,60.02
2023-05-02T07:10:07.490Z,59.91
2023-05-02T07:11:12.887Z,59.9
2023-05-02T07:12:19.521Z,60.04
2023-05-02T07:13:24.902Z,60.07
2023-05-02T07:14:30.312Z,59.98
2023-05-02T07:15:35.736Z,60.01
2023-05-02T07:16:41.395Z,60.2
2023-05-02T07:17:48.087Z,60.14
2023-05-02T07:18:53.545Z,60.24
2023-05-02T07:19:59.089Z,60.26
2023-05-02T07:21:04.608Z,60.02
2023-05-02T07:22:09.983Z,60.29
2023-05-02T07:23:15.364Z,60.13
2023-05-02T07:24:20.747Z,60.25
2023-05-02T07:25:26.161Z,60.21
2023-05-02T07:26:31.586Z,60.16
2023-05-02T07:27:36.969Z,60.18
2023-05-02T07:28:42.370Z,60.22
2023-05-02T07:29:47.737Z,60.06
2023-05-02T07:30:53.103Z,60.37
2023-05-02T07:31:58.605Z,60.27
2023-05-02T07:33:04.132Z,60.2
2023-05-02T07:34:09.777Z,60.43
2023-05-02T07:35:15.176Z,60.37
2023-05-02T07:36:20.665Z,60.38
2023-05-02T07:37:26.076Z,60.31
2023-05-02T07:38:31.465Z,60.38
2023-05-02T07:39:36.940Z,60.48
2023-05-02T07:40:42.321Z,60.48
2023-05-02T07:41:47.709Z,60.25
2023-05-02T07:42:53.123Z,59.21
2023-05-02T07:43:58.485Z,59.82
2023-05-02T07:45:04.032Z,59.66
2023-05-02T07:46:09.720Z,59.79
2023-05-02T07:47:15.157Z,59.8
2023-05-02T07:48:20.613Z,59.82
2023-05-02T07:49:26.006Z,59.93
2023-05-02T07:50:31.420Z,59.83
2023-05-02T07:51:36.865Z,60
2023-05-02T07:52:42.302Z,59.72
2023-05-02T07:53:47.670Z,59.81
2023-05-02T07:54:53.116Z,59.84
2023-05-02T07:55:58.552Z,59.95
2023-05-02T07:57:03.964Z,59.72
2023-05-02T07:58:09.360Z,59.94
2023-05-02T07:59:15.256Z,59.98
2023-05-02T08:00:20.647Z,59.91
2023-05-02T08:01:25.996Z,60.04
2023-05-02T08:02:31.686Z,59.67
2023-05-02T08:03:38.016Z,59.95
2023-05-02T08:04:43.737Z,59.98
2023-05-02T08:05:49.183Z,59.96
2023-05-02T08:06:54.826Z,60.02
2023-05-02T08:08:00.245Z,60.1
2023-05-02T08:09:05.613Z,60.31
2023-05-02T08:10:11.090Z,60.07
2023-05-02T08:11:16.759Z,60.19
2023-05-02T08:12:22.119Z,59.97
2023-05-02T08:13:27.514Z,60.04
2023-05-02T08:14:33.007Z,60.09
2023-05-02T08:15:38.545Z,60.01
2023-05-02T08:16:47.807Z,60.1
2023-05-02T08:17:53.330Z,60.29
2023-05-02T08:18:58.770Z,60.13
2023-05-02T08:20:07.094Z,60.12
2023-05-02T08:21:12.501Z,60.24
2023-05-02T08:22:17.902Z,60.21
2023-05-02T08:23:23.858Z,60.02
2023-05-02T08:24:29.203Z,60.16
2023-05-02T08:25:34.583Z,60.09
2023-05-02T08:26:40.027Z,60.19
2023-05-02T08:27:45.397Z,60.12
2023-05-02T08:28:50.754Z,60.27
2023-05-02T08:29:57.936Z,60.24
2023-05-02T08:31:03.962Z,60.23
2023-05-02T08:32:09.915Z,60.26
2023-05-02T08:33:15.437Z,60.19
2023-05-02T08:34:20.880Z,60.18
2023-05-02T08:35:26.250Z,60.09
2023-05-02T08:36:31.646Z,60.25
2023-05-02T08:37:37.033Z,60.08
2023-05-02T08:38:42.425Z,60.16
2023-05-02T08:39:47.820Z,60.08
2023-05-02T08:40:53.253Z,60.09
2023-05-02T08:41:58.616Z,60.15
2023-05-02T08:43:03.994Z,60.08
2023-05-02T08:44:09.407Z,60.12
2023-05-02T08:45:18.003Z,60.26
2023-05-02T08:46:23.571Z,60.04
2023-05-02T08:47:29.384Z,60.09
2023-05-02T08:48:34.956Z,60.16
2023-05-02T08:49:40.379Z,60.19
2023-05-02T08:50:45.812Z,60.16
2023-05-02T08:51:51.170Z,60.19
2023-05-02T08:52:56.520Z,60.19
2023-05-02T08:54:02.089Z,60.18
2023-05-02T08:55:07.513Z,60.12
2023-05-02T08:56:12.953Z,60.13
2023-05-02T08:57:18.344Z,60.15
2023-05-02T08:58:24.157Z,60.22
2023-05-02T08:59:29.617Z,60.17
2023-05-02T09:00:34.993Z,60.12
2023-05-02T09:01:40.858Z,60.05
2023-05-02T09:02:46.394Z,59.94
2023-05-02T09:03:51.894Z,60.05
2023-05-02T09:04:57.337Z,60.12
2023-05-02T09:06:02.882Z,60.02
2023-05-02T09:07:08.716Z,60.08
2023-05-02T09:08:14.953Z,60
2023-05-02T09:09:22.030Z,60.13
2023-05-02T09:10:27.454Z,60.03
2023-05-02T09:11:32.923Z,59.97
2023-05-02T09:12:38.308Z,60.2
2023-05-02T09:13:43.689Z,60.2
2023-05-02T09:14:49.049Z,60.21
2023-05-02T09:15:54.649Z,59.88
2023-05-02T09:17:00.442Z,59.97
2023-05-02T09:18:06.069Z,59.96
2023-05-02T09:19:11.556Z,60.16
2023-05-02T09:20:17.023Z,60.14
2023-05-02T09:21:24.096Z,60.06
2023-05-02T09:22:29.483Z,59.98
2023-05-02T09:23:34.927Z,59.92
2023-05-02T09:24:40.290Z,59.82
2023-05-02T09:25:45.662Z,59.88
2023-05-02T09:26:51.038Z,59.83
2023-05-02T09:27:56.531Z,59.85
2023-05-02T09:29:02.058Z,59.74
2023-05-02T09:30:07.522Z,59.75
2023-05-02T09:31:13.083Z,59.66
2023-05-02T09:32:18.683Z,59.49
2023-05-02T09:33:24.134Z,59.59
2023-05-02T09:34:29.716Z,59.41
2023-05-02T09:35:35.090Z,59.56
2023-05-02T09:36:40.511Z,59.69
2023-05-02T09:37:45.885Z,59.67
2023-05-02T09:38:51.538Z,59.69
2023-05-02T09:39:56.916Z,59.75
2023-05-02T09:41:02.275Z,59.94
2023-05-02T09:42:07.683Z,59.77
2023-05-02T09:43:13.197Z,59.74
2023-05-02T09:44:18.695Z,59.75
2023-05-02T09:45:24.249Z,59.78
2023-05-02T09:46:29.871Z,59.88
2023-05-02T09:47:35.376Z,59.96
2023-05-02T09:48:40.828Z,60.08
2023-05-02T09:49:46.989Z,59.99
2023-05-02T09:50:52.492Z,59.84
2023-05-02T09:51:58.072Z,59.98
2023-05-02T09:53:03.666Z,59.99
2023-05-02T09:54:09.033Z,60.01
2023-05-02T09:55:14.386Z,59.76
2023-05-02T09:56:19.970Z,59.82
2023-05-02T09:57:25.396Z,59.51
2023-05-02T09:58:30.774Z,59.54
2023-05-02T09:59:36.166Z,59.56
2023-05-02T10:00:41.573Z,59.55
2023-05-02T10:01:47.048Z,59.62
2023-05-02T10:02:52.553Z,59.56
2023-05-02T10:03:58.103Z,59.65
2023-05-02T10:05:04.187Z,59.63
2023-05-02T10:06:09.655Z,59.03
2023-05-02T10:07:15.013Z,58.59
2023-05-02T10:08:20.405Z,58.75
2023-05-02T10:09:25.868Z,58.89
2023-05-02T10:10:31.503Z,58.87
2023-05-02T10:11:36.875Z,58.92
2023-05-02T10:12:42.269Z,58.93
2023-05-02T10:13:47.727Z,59.07
2023-05-02T10:14:53.303Z,58.98
2023-05-02T10:15:58.817Z,59.07
2023-05-02T10:17:04.431Z,59.02
2023-05-02T10:18:10.054Z,58.91
2023-05-02T10:19:16.644Z,59
2023-05-02T10:20:22.056Z,59.06
2023-05-02T10:21:27.441Z,59
2023-05-02T10:22:32.882Z,59.06
2023-05-02T10:23:38.287Z,59.25
2023-05-02T10:24:43.729Z,59.17
2023-05-02T10:25:49.127Z,59.22
2023-05-02T10:26:54.509Z,59.02
2023-05-02T10:27:59.963Z,59.13
2023-05-02T10:29:05.372Z,59.09
2023-05-02T10:30:10.787Z,59.16
2023-05-02T10:31:16.321Z,59.22
2023-05-02T10:32:21.776Z,59.19
2023-05-02T10:33:27.194Z,59.07
2023-05-02T10:34:32.627Z,59.13
2023-05-02T10:35:37.989Z,59.05
2023-05-02T10:36:43.368Z,59.06
2023-05-02T10:37:48.890Z,59.23
2023-05-02T10:38:54.904Z,59.22
2023-05-02T10:40:00.311Z,59.22
2023-05-02T10:41:05.718Z,59.15
2023-05-02T10:42:11.107Z,59.15
2023-05-02T10:43:16.499Z,59.2
2023-05-02T10:44:21.886Z,59.18
2023-05-02T10:45:27.287Z,59.16
2023-05-02T10:46:32.778Z,59.23
2023-05-02T10:47:38.305Z,59.17
2023-05-02T10:48:43.710Z,59.16
2023-05-02T10:49:49.120Z,59.2
2023-05-02T10:50:54.556Z,59.27
2023-05-02T10:51:59.912Z,59.22
2023-05-02T10:53:05.264Z,59.24
2023-05-02T10:54:10.654Z,59.22
2023-05-02T10:55:16.020Z,59.27
2023-05-02T10:56:21.396Z,59.27
2023-05-02T10:57:26.749Z,59.3
2023-05-02T10:58:32.076Z,59.36
2023-05-02T10:59:37.523Z,59.17
2023-05-02T11:00:42.983Z,59.35
2023-05-02T11:01:48.569Z,59.33
2023-05-02T11:02:54.393Z,59.35
2023-05-02T11:04:00.868Z,59.32
2023-05-02T11:05:06.885Z,59.34
2023-05-02T11:06:12.621Z,59.33
2023-05-02T11:07:18.056Z,59.32
2023-05-02T11:08:26.029Z,59.22
2023-05-02T11:09:31.550Z,59.54
2023-05-02T11:10:36.968Z,58.71
2023-05-02T11:11:42.425Z,55.19
2023-05-02T11:12:47.972Z,52.81
2023-05-02T11:13:53.327Z,55.54
2023-05-02T11:14:58.919Z,55.65
2023-05-02T11:16:04.668Z,56.23
2023-05-02T11:17:10.154Z,56.24
2023-05-02T11:18:16.226Z,55.89
2023-05-02T11:19:21.784Z,55.91
2023-05-02T11:20:27.226Z,56.2
2023-05-02T11:21:32.851Z,56.2
2023-05-02T11:22:38.459Z,56.11
2023-05-02T11:23:43.828Z,56.21
2023-05-02T11:24:49.276Z,56.39
2023-05-02T11:25:55.182Z,56.26
2023-05-02T11:27:00.638Z,56.29
2023-05-02T11:28:06.084Z,56.37
2023-05-02T11:29:11.460Z,56.5
2023-05-02T11:30:16.928Z,56.58
2023-05-02T11:31:22.296Z,56.57
2023-05-02T11:32:27.926Z,56.7
2023-05-02T11:33:33.306Z,56.7
2023-05-02T11:34:38.651Z,56.72
2023-05-02T11:35:44.062Z,56.87
2023-05-02T11:36:49.460Z,56.91
2023-05-02T11:37:54.835Z,56.95
2023-05-02T11:39:00.236Z,57.01
2023-05-02T11:40:05.599Z,57.07
2023-05-02T11:41:15.350Z,57.18
2023-05-02T11:42:20.741Z,57.09
2023-05-02T11:43:26.140Z,57.17
2023-05-02T11:44:31.587Z,57.15
2023-05-02T11:45:36.986Z,57.34
2023-05-02T11:46:42.749Z,57.41
2023-05-02T11:47:48.332Z,57.3
2023-05-02T11:48:53.821Z,57.35
2023-05-02T11:49:59.243Z,57.34
2023-05-02T11:51:04.707Z,57.33
2023-05-02T11:52:10.151Z,57.28
2023-05-02T11:53:15.578Z,57.32
2023-05-02T11:54:20.995Z,57.31
2023-05-02T11:55:26.409Z,57.31
2023-05-02T11:56:31.889Z,57.4
2023-05-02T11:57:37.290Z,57.43
2023-05-02T11:58:42.820Z,57.48
2023-05-02T11:59:48.282Z,57.48
2023-05-02T12:00:53.751Z,57.43
2023-05-02T12:01:59.159Z,57.54
2023-05-02T12:03:05.022Z,57.55
2023-05-02T12:04:11.070Z,57.53
2023-05-02T12:05:16.811Z,57.59
2023-05-02T12:06:23.334Z,57.63
2023-05-02T12:07:28.796Z,57.5
2023-05-02T12:08:34.239Z,57.57
2023-05-02T12:09:39.817Z,57.73
2023-05-02T12:10:45.229Z,57.75
2023-05-02T12:11:50.664Z,57.61
2023-05-02T12:12:56.053Z,57.75
2023-05-02T12:14:01.462Z,57.91
2023-05-02T12:15:07.118Z,57.84
2023-05-02T12:16:12.668Z,57.88
2023-05-02T12:17:18.228Z,57.76
2023-05-02T12:18:24.906Z,57.81
2023-05-02T12:19:30.434Z,57.8
2023-05-02T12:20:35.862Z,57.89
2023-05-02T12:21:41.289Z,57.93
2023-05-02T12:22:46.767Z,57.79
2023-05-02T12:23:52.223Z,57.84
2023-05-02T12:24:57.614Z,57.88
2023-05-02T12:26:03.065Z,57.99
2023-05-02T12:27:08.473Z,58.02
2023-05-02T12:28:13.900Z,57.95
2023-05-02T12:29:19.553Z,58.01
2023-05-02T12:30:24.931Z,57.91
2023-05-02T12:31:30.603Z,58.09
2023-05-02T12:32:36.163Z,58.03
2023-05-02T12:33:41.677Z,57.99
2023-05-02T12:34:47.102Z,58.05
2023-05-02T12:35:52.661Z,58.08
2023-05-02T12:36:58.067Z,58.2
2023-05-02T12:38:03.448Z,58.18
2023-05-02T12:39:08.879Z,58.26
2023-05-02T12:40:14.315Z,58.19
2023-05-02T12:41:19.718Z,58.15
2023-05-02T12:42:25.411Z,58.21
2023-05-02T12:43:30.837Z,58.2
2023-05-02T12:44:36.231Z,58.24
2023-05-02T12:45:41.682Z,58.28
2023-05-02T12:46:47.183Z,58.3
2023-05-02T12:47:52.842Z,58.27
2023-05-02T12:48:58.253Z,58.28
2023-05-02T12:50:04.569Z,58.06
2023-05-02T12:51:10.055Z,58.34
2023-05-02T12:52:15.500Z,57.76
2023-05-02T12:53:20.923Z,56.53
2023-05-02T12:54:26.363Z,56.34
2023-05-02T12:55:31.841Z,56.51
2023-05-02T12:56:37.270Z,55.7
2023-05-02T12:57:42.683Z,55.79
2023-05-02T12:58:48.157Z,55.69
2023-05-02T12:59:53.588Z,55.88
2023-05-02T13:00:59.069Z,55.47
2023-05-02T13:02:04.505Z,55.95
2023-05-02T13:03:10.277Z,55.88
2023-05-02T13:04:15.966Z,55.95
2023-05-02T13:05:21.421Z,55.85
2023-05-02T13:06:26.930Z,55.8
2023-05-02T13:07:32.382Z,55.88
2023-05-02T13:08:37.783Z,55.97
2023-05-02T13:09:43.193Z,55.99
2023-05-02T13:10:48.649Z,56
2023-05-02T13:11:54.040Z,55.83
2023-05-02T13:12:59.484Z,56
2023-05-02T13:14:04.896Z,55.97
2023-05-02T13:15:10.591Z,55.96
2023-05-02T13:16:16.450Z,55.93
2023-05-02T13:17:22.260Z,55.91
2023-05-02T13:18:27.875Z,55.96
2023-05-02T13:19:33.340Z,55.97
2023-05-02T13:20:38.722Z,56.03
2023-05-02T13:21:44.108Z,56.01
2023-05-02T13:22:49.521Z,55.92
2023-05-02T13:23:54.962Z,55.92
2023-05-02T13:25:00.374Z,55.93
2023-05-02T13:26:05.780Z,55.92
2023-05-02T13:27:11.173Z,55.85
2023-05-02T13:28:16.569Z,55.85
2023-05-02T13:29:22.036Z,55.87
2023-05-02T13:30:27.435Z,55.9
2023-05-02T13:31:33.076Z,55.94
2023-05-02T13:32:38.790Z,55.89
2023-05-02T13:33:44.257Z,55.79
2023-05-02T13:34:49.655Z,55.73
2023-05-02T13:35:55.041Z,55.77
2023-05-02T13:37:00.426Z,55.63
2023-05-02T13:38:05.962Z,55.61
2023-05-02T13:39:11.770Z,55.62
2023-05-02T13:40:17.208Z,55.74
2023-05-02T13:41:22.661Z,55.75
2023-05-02T13:42:28.094Z,55.73
2023-05-02T13:43:33.552Z,55.76
2023-05-02T13:44:39.038Z,55.65
2023-05-02T13:45:44.548Z,55.79
2023-05-02T13:46:50.351Z,55.8
2023-05-02T13:47:55.857Z,55.65
2023-05-02T13:49:01.284Z,55.71
2023-05-02T13:50:07.422Z,55.76
2023-05-02T13:51:15.861Z,55.57
2023-05-02T13:52:25.388Z,55.7
2023-05-02T13:53:30.779Z,55.78
2023-05-02T13:54:36.193Z,55.68
2023-05-02T13:55:41.608Z,55.78
2023-05-02T13:56:47.021Z,55.85
2023-05-02T13:57:52.441Z,55.71
2023-05-02T13:58:57.906Z,55.62
2023-05-02T14:00:04.811Z,56.08
2023-05-02T14:01:32.744Z,55.82
2023-05-02T14:02:38.580Z,55.77
2023-05-02T14:03:44.451Z,56.06
2023-05-02T14:04:49.921Z,56.13
2023-05-02T14:05:55.326Z,56.19
2023-05-02T14:07:00.745Z,56.37
2023-05-02T14:08:06.184Z,56.45